NTAA/PPT METAR and TAF weather

Enter ICAO airport designator
Station Type Date Time Source
NTAA METAR 2020/09/27 17:00 UTC NOAA

NTAA 271700Z 21003KT 9999 FEW020 26/21 Q1016 WS R04 NOSIG


Station Type Date Time Source
NTAA Decoded METAR 2020/09/27 17:00 UTC NOAA

Tahiti-Faaa, French Polynesia (NTAA) 17-33S 149-37W 2M
Sep 27, 2020 - 01:00 PM EDT / 2020.09.27 1700 UTC
Wind: from the SSW (210 degrees) at 3 MPH (3 KT):0
Visibility: greater than 7 mile(s):0
Sky conditions: mostly clear
Temperature: 78 F (26 C)
Dew Point: 69 F (21 C)
Relative Humidity: 73%
Pressure (altimeter): 30.00 in. Hg (1016 hPa)
ob: NTAA 271700Z 21003KT 9999 FEW020 26/21 Q1016 WS R04 NOSIG
cycle: 17

Station Type Date Time Source
NTAA TAF 2020/09/27 18:10 UTC NOAA

TAF NTAA 271700Z 2718/2824 VRB04KT 9999 FEW023 SCT050 PROB30
TEMPO 2722/2802 5000 SHRA SCT020 BKN045

Example: see airport list